M4 — V7YF6 — position and weather

sailwx.info

Track history (hours):
 
Tides and Currents Weather Stations Pressure Air Temp Water Temp Dewpoint Dewpoint Depression Visibility Wind Speed Wind Dir Waves Ship Positions

M4

Last reported at 2016-May-21 22:33 UTC. Time now 2016-May-24 19:35 UTC.
Position N 18°08' W 063°09'.

Length 42 m; draft 2.4 m.

Type: Pleasure craft. MMSI: 538070835.

Date/timePositionNaut miles runAvg speedWind from/ knotsBaromVisibWave heightAir tempDewpointWater temp
2016-May-21 22:33N 18°08' W 063°09'5 5.5
2016-May-21 21:33N 18°04' W 063°05'0 0.0
2016-May-21 20:30N 18°04' W 063°05'0 0.0
2016-May-21 19:30N 18°04' W 063°05'0 0.0
2016-May-21 18:33N 18°04' W 063°05'0 0.0
2016-May-21 17:31N 18°04' W 063°05'0 0.0
2016-May-21 16:33N 18°04' W 063°05'0 0.0
2016-May-21 15:21N 18°04' W 063°05'0 0.0
2016-May-21 14:24N 18°04' W 063°05'0 0.0
2016-May-21 13:24N 18°04' W 063°05'0 0.0
2016-May-21 12:27N 18°04' W 063°05'0 0.0
2016-May-21 11:27N 18°04' W 063°05'0 0.0
2016-May-21 10:27N 18°04' W 063°05'0 0.0
2016-May-21 09:30N 18°04' W 063°05'0 0.0
2016-May-21 08:30N 18°04' W 063°05'0 0.0
2016-May-21 07:33N 18°04' W 063°05'0 0.0
2016-May-21 06:33N 18°04' W 063°05'0 0.0
2016-May-21 05:33N 18°04' W 063°05'0 0.0
2016-May-21 04:33N 18°04' W 063°05'0 0.0
2016-May-21 03:21N 18°04' W 063°05'0 0.0
2016-May-21 02:33N 18°04' W 063°05'0 0.0
2016-May-21 01:24N 18°04' W 063°05'0 0.0
2016-May-21 00:24N 18°04' W 063°05'0 0.0
2016-May-20 23:24N 18°04' W 063°05'0 0.0
2016-May-20 22:21N 18°04' W 063°05'0 0.0
2016-May-20 21:27N 18°04' W 063°05'0 0.0
2016-May-20 20:24N 18°04' W 063°05'0 0.0
2016-May-20 19:30N 18°04' W 063°05'0 0.0
2016-May-20 18:30N 18°04' W 063°05'0 0.0
2016-May-20 17:33N 18°04' W 063°05'0 0.0
2016-May-20 16:33N 18°04' W 063°05'0 0.0
2016-May-20 15:30N 18°04' W 063°05'0 0.2
2016-May-20 14:33N 18°04' W 063°05'0 0.1
2016-May-20 13:32N 18°04' W 063°05'0 0.0
2016-May-20 12:32N 18°04' W 063°05'0 0.0
2016-May-20 11:33N 18°04' W 063°05'0 0.0
2016-May-20 10:33N 18°04' W 063°05'0 0.0
2016-May-20 09:08N 18°04' W 063°05'0 0.0
2016-May-20 08:26N 18°04' W 063°05'0 0.0
2016-May-20 07:26N 18°04' W 063°05'0 0.0
2016-May-20 06:26N 18°04' W 063°05'0 0.0
2016-May-20 04:29N 18°04' W 063°05'0 0.0
2016-May-20 03:26N 18°04' W 063°05'0 0.0
2016-May-20 02:32N 18°04' W 063°05'0 0.0
2016-May-20 01:32N 18°04' W 063°05'0 0.0
2016-May-20 00:29N 18°04' W 063°05'0 0.0
2016-May-19 23:32N 18°04' W 063°05'0 0.0
2016-May-19 22:32N 18°04' W 063°05'0 0.0
2016-May-19 21:32N 18°04' W 063°05'0 0.0
2016-May-19 20:32N 18°04' W 063°05'0 0.0
2016-May-19 19:24N 18°04' W 063°05'0 0.0
2016-May-19 18:26N 18°04' W 063°05'2 2.2
2016-May-19 17:33N 18°06' W 063°06'2 1.9
2016-May-19 16:32N 18°04' W 063°05'0 0.0
2016-May-19 15:14N 18°04' W 063°05'  
2016-May-15 19:17N 18°05' W 063°05'1 1.0
2016-May-15 18:26N 18°04' W 063°05'0 0.0
2016-May-15 17:29N 18°04' W 063°05'0 0.0
2016-May-15 16:30N 18°04' W 063°05'0 0.0
2016-May-15 15:29N 18°04' W 063°05'0 0.0
2016-May-15 14:33N 18°04' W 063°05'0 0.0
2016-May-15 13:33N 18°04' W 063°05'0 0.0
2016-May-15 12:32N 18°04' W 063°05'0 0.0
2016-May-15 11:32N 18°04' W 063°05'0 0.0
2016-May-15 10:18N 18°04' W 063°05'0 0.0
2016-May-15 09:33N 18°04' W 063°05'0 0.0
2016-May-15 08:33N 18°04' W 063°05'0 0.0
2016-May-15 07:24N 18°04' W 063°05'0 0.0
2016-May-15 06:24N 18°04' W 063°05'0 0.0
2016-May-15 05:26N 18°04' W 063°05'0 0.0
2016-May-15 04:26N 18°04' W 063°05'0 0.0
2016-May-15 03:29N 18°04' W 063°05'0 0.0
2016-May-15 02:29N 18°04' W 063°05'0 0.0
2016-May-15 01:29N 18°04' W 063°05'0 0.0
2016-May-15 00:29N 18°04' W 063°05'0 0.0
2016-May-14 23:32N 18°04' W 063°05'0 0.0
2016-May-14 22:32N 18°04' W 063°05'0 0.0
2016-May-14 21:32N 18°04' W 063°05'0 0.0
2016-May-14 20:32N 18°04' W 063°05'0 0.0
2016-May-14 19:32N 18°04' W 063°05'0 0.0
2016-May-14 18:32N 18°04' W 063°05'0 0.0
2016-May-14 17:23N 18°04' W 063°05'0 0.0
2016-May-14 16:27N 18°04' W 063°05'0 0.0
2016-May-14 15:26N 18°04' W 063°05'0 0.0
2016-May-14 14:26N 18°04' W 063°05'0 0.0
2016-May-14 13:26N 18°04' W 063°05'0 0.0
2016-May-14 12:29N 18°04' W 063°05'0 0.0
2016-May-14 11:29N 18°04' W 063°05'0 0.0
2016-May-14 10:33N 18°04' W 063°05'0 0.0
2016-May-14 09:32N 18°04' W 063°05'0 0.0
2016-May-14 08:03N 18°04' W 063°05'0 0.0
2016-May-14 07:32N 18°04' W 063°05'0 0.0
2016-May-14 06:33N 18°04' W 063°05'0 0.0
2016-May-14 05:32N 18°04' W 063°05'0 0.0
2016-May-14 04:32N 18°04' W 063°05'0 0.0
2016-May-14 03:23N 18°04' W 063°05'0 0.0
2016-May-14 02:26N 18°04' W 063°05'0 0.0
2016-May-14 01:26N 18°04' W 063°05'0 0.0
2016-May-14 00:23N 18°04' W 063°05'0 0.0
2016-May-13 23:29N 18°04' W 063°05'0 0.0
2016-May-13 22:29N 18°04' W 063°05'0 0.0
2016-May-13 21:30N 18°04' W 063°05'0 0.0
2016-May-13 20:33N 18°04' W 063°05'0 0.0
2016-May-13 19:32N 18°04' W 063°05'0 0.0
2016-May-13 18:32N 18°04' W 063°05'0 0.0
2016-May-13 17:32N 18°04' W 063°05'0 0.0
2016-May-13 16:32N 18°04' W 063°05'0 0.0
2016-May-13 15:20N 18°04' W 063°05'0 0.0
2016-May-13 14:33N 18°04' W 063°05'0 0.0
2016-May-13 13:23N 18°04' W 063°05'0 0.0
2016-May-13 12:26N 18°04' W 063°05'0 0.0
2016-May-13 11:26N 18°04' W 063°05'0 0.0
2016-May-13 10:24N 18°04' W 063°05'0 0.0
2016-May-13 09:29N 18°04' W 063°05'0 0.0
2016-May-13 08:30N 18°04' W 063°05'0 0.0
2016-May-13 07:30N 18°04' W 063°05'0 0.0
2016-May-13 06:29N 18°04' W 063°05'0 0.0
2016-May-13 05:33N 18°04' W 063°05'0 0.0
2016-May-13 04:32N 18°04' W 063°05'0 0.0
2016-May-13 03:32N 18°04' W 063°05'0 0.0
2016-May-13 02:33N 18°04' W 063°05'0 0.0
2016-May-13 01:20N 18°04' W 063°05'0 0.0
2016-May-13 00:32N 18°04' W 063°05'0 0.0
2016-May-12 23:23N 18°04' W 063°05'0 0.0
2016-May-12 22:23N 18°04' W 063°05'0 0.0
2016-May-12 21:26N 18°04' W 063°05'0 0.0
2016-May-12 20:26N 18°04' W 063°05'0 0.0
2016-May-12 19:29N 18°04' W 063°05'0 0.0
2016-May-12 18:29N 18°04' W 063°05'0 0.0
2016-May-12 17:14N 18°04' W 063°05'0 0.0
2016-May-12 16:32N 18°04' W 063°05'0 0.0
2016-May-12 15:33N 18°04' W 063°05'0 0.0
2016-May-12 14:30N 18°04' W 063°05'0 0.0
2016-May-12 13:33N 18°04' W 063°05'0 0.0
2016-May-12 12:20N 18°04' W 063°05'0 0.0
2016-May-12 11:32N 18°04' W 063°05'0 0.0
2016-May-12 10:32N 18°04' W 063°05'0 0.0
2016-May-12 09:23N 18°04' W 063°05'0 0.0
2016-May-12 08:23N 18°04' W 063°05'0 0.0
2016-May-12 07:27N 18°04' W 063°05'0 0.0
2016-May-12 06:11N 18°04' W 063°05'0 0.0
2016-May-12 05:29N 18°04' W 063°05'0 0.0
2016-May-12 04:29N 18°04' W 063°05'0 0.0
2016-May-12 03:29N 18°04' W 063°05'0 0.0
2016-May-12 02:29N 18°04' W 063°05'0 0.0
2016-May-12 01:17N 18°04' W 063°05'0 0.0
2016-May-12 00:29N 18°04' W 063°05'0 0.0
2016-May-11 23:32N 18°04' W 063°05'  
Track history (hours):
 
Tides and Currents Weather Stations Pressure Air Temp Water Temp Dewpoint Dewpoint Depression Visibility Wind Speed Wind Dir Waves Ship Positions

M4

Last reported at 2016-May-21 22:33 UTC. Time now 2016-May-24 19:35 UTC.
Position N 18°08' W 063°09'.

Length 42 m; draft 2.4 m.

Type: Pleasure craft. MMSI: 538070835.

Date/timePositionNaut miles runAvg speedWind from/ knotsBaromVisibWave heightAir tempDewpointWater temp
2016-May-21 22:33N 18°08' W 063°09'5 5.5
2016-May-21 21:33N 18°04' W 063°05'0 0.0
2016-May-21 20:30N 18°04' W 063°05'0 0.0
2016-May-21 19:30N 18°04' W 063°05'0 0.0
2016-May-21 18:33N 18°04' W 063°05'0 0.0
2016-May-21 17:31N 18°04' W 063°05'0 0.0
2016-May-21 16:33N 18°04' W 063°05'0 0.0
2016-May-21 15:21N 18°04' W 063°05'0 0.0
2016-May-21 14:24N 18°04' W 063°05'0 0.0
2016-May-21 13:24N 18°04' W 063°05'0 0.0
2016-May-21 12:27N 18°04' W 063°05'0 0.0
2016-May-21 11:27N 18°04' W 063°05'0 0.0
2016-May-21 10:27N 18°04' W 063°05'0 0.0
2016-May-21 09:30N 18°04' W 063°05'0 0.0
2016-May-21 08:30N 18°04' W 063°05'0 0.0
2016-May-21 07:33N 18°04' W 063°05'0 0.0
2016-May-21 06:33N 18°04' W 063°05'0 0.0
2016-May-21 05:33N 18°04' W 063°05'0 0.0
2016-May-21 04:33N 18°04' W 063°05'0 0.0
2016-May-21 03:21N 18°04' W 063°05'0 0.0
2016-May-21 02:33N 18°04' W 063°05'0 0.0
2016-May-21 01:24N 18°04' W 063°05'0 0.0
2016-May-21 00:24N 18°04' W 063°05'0 0.0
2016-May-20 23:24N 18°04' W 063°05'0 0.0
2016-May-20 22:21N 18°04' W 063°05'0 0.0
2016-May-20 21:27N 18°04' W 063°05'0 0.0
2016-May-20 20:24N 18°04' W 063°05'0 0.0
2016-May-20 19:30N 18°04' W 063°05'0 0.0
2016-May-20 18:30N 18°04' W 063°05'0 0.0
2016-May-20 17:33N 18°04' W 063°05'0 0.0
2016-May-20 16:33N 18°04' W 063°05'0 0.0
2016-May-20 15:30N 18°04' W 063°05'0 0.2
2016-May-20 14:33N 18°04' W 063°05'0 0.1
2016-May-20 13:32N 18°04' W 063°05'0 0.0
2016-May-20 12:32N 18°04' W 063°05'0 0.0
2016-May-20 11:33N 18°04' W 063°05'0 0.0
2016-May-20 10:33N 18°04' W 063°05'0 0.0
2016-May-20 09:08N 18°04' W 063°05'0 0.0
2016-May-20 08:26N 18°04' W 063°05'0 0.0
2016-May-20 07:26N 18°04' W 063°05'0 0.0
2016-May-20 06:26N 18°04' W 063°05'0 0.0
2016-May-20 04:29N 18°04' W 063°05'0 0.0
2016-May-20 03:26N 18°04' W 063°05'0 0.0
2016-May-20 02:32N 18°04' W 063°05'0 0.0
2016-May-20 01:32N 18°04' W 063°05'0 0.0
2016-May-20 00:29N 18°04' W 063°05'0 0.0
2016-May-19 23:32N 18°04' W 063°05'0 0.0
2016-May-19 22:32N 18°04' W 063°05'0 0.0
2016-May-19 21:32N 18°04' W 063°05'0 0.0
2016-May-19 20:32N 18°04' W 063°05'0 0.0
2016-May-19 19:24N 18°04' W 063°05'0 0.0
2016-May-19 18:26N 18°04' W 063°05'2 2.2
2016-May-19 17:33N 18°06' W 063°06'2 1.9
2016-May-19 16:32N 18°04' W 063°05'0 0.0
2016-May-19 15:14N 18°04' W 063°05'  
2016-May-15 19:17N 18°05' W 063°05'1 1.0
2016-May-15 18:26N 18°04' W 063°05'0 0.0
2016-May-15 17:29N 18°04' W 063°05'0 0.0
2016-May-15 16:30N 18°04' W 063°05'0 0.0
2016-May-15 15:29N 18°04' W 063°05'0 0.0
2016-May-15 14:33N 18°04' W 063°05'0 0.0
2016-May-15 13:33N 18°04' W 063°05'0 0.0
2016-May-15 12:32N 18°04' W 063°05'0 0.0
2016-May-15 11:32N 18°04' W 063°05'0 0.0
2016-May-15 10:18N 18°04' W 063°05'0 0.0
2016-May-15 09:33N 18°04' W 063°05'0 0.0
2016-May-15 08:33N 18°04' W 063°05'0 0.0
2016-May-15 07:24N 18°04' W 063°05'0 0.0
2016-May-15 06:24N 18°04' W 063°05'0 0.0
2016-May-15 05:26N 18°04' W 063°05'0 0.0
2016-May-15 04:26N 18°04' W 063°05'0 0.0
2016-May-15 03:29N 18°04' W 063°05'0 0.0
2016-May-15 02:29N 18°04' W 063°05'0 0.0
2016-May-15 01:29N 18°04' W 063°05'0 0.0
2016-May-15 00:29N 18°04' W 063°05'0 0.0
2016-May-14 23:32N 18°04' W 063°05'0 0.0
2016-May-14 22:32N 18°04' W 063°05'0 0.0
2016-May-14 21:32N 18°04' W 063°05'0 0.0
2016-May-14 20:32N 18°04' W 063°05'0 0.0
2016-May-14 19:32N 18°04' W 063°05'0 0.0
2016-May-14 18:32N 18°04' W 063°05'0 0.0
2016-May-14 17:23N 18°04' W 063°05'0 0.0
2016-May-14 16:27N 18°04' W 063°05'0 0.0
2016-May-14 15:26N 18°04' W 063°05'0 0.0
2016-May-14 14:26N 18°04' W 063°05'0 0.0
2016-May-14 13:26N 18°04' W 063°05'0 0.0
2016-May-14 12:29N 18°04' W 063°05'0 0.0
2016-May-14 11:29N 18°04' W 063°05'0 0.0
2016-May-14 10:33N 18°04' W 063°05'0 0.0
2016-May-14 09:32N 18°04' W 063°05'0 0.0
2016-May-14 08:03N 18°04' W 063°05'0 0.0
2016-May-14 07:32N 18°04' W 063°05'0 0.0
2016-May-14 06:33N 18°04' W 063°05'0 0.0
2016-May-14 05:32N 18°04' W 063°05'0 0.0
2016-May-14 04:32N 18°04' W 063°05'0 0.0
2016-May-14 03:23N 18°04' W 063°05'0 0.0
2016-May-14 02:26N 18°04' W 063°05'0 0.0
2016-May-14 01:26N 18°04' W 063°05'0 0.0
2016-May-14 00:23N 18°04' W 063°05'0 0.0
2016-May-13 23:29N 18°04' W 063°05'0 0.0
2016-May-13 22:29N 18°04' W 063°05'0 0.0
2016-May-13 21:30N 18°04' W 063°05'0 0.0
2016-May-13 20:33N 18°04' W 063°05'0 0.0
2016-May-13 19:32N 18°04' W 063°05'0 0.0
2016-May-13 18:32N 18°04' W 063°05'0 0.0
2016-May-13 17:32N 18°04' W 063°05'0 0.0
2016-May-13 16:32N 18°04' W 063°05'0 0.0
2016-May-13 15:20N 18°04' W 063°05'0 0.0
2016-May-13 14:33N 18°04' W 063°05'0 0.0
2016-May-13 13:23N 18°04' W 063°05'0 0.0
2016-May-13 12:26N 18°04' W 063°05'0 0.0
2016-May-13 11:26N 18°04' W 063°05'0 0.0
2016-May-13 10:24N 18°04' W 063°05'0 0.0
2016-May-13 09:29N 18°04' W 063°05'0 0.0
2016-May-13 08:30N 18°04' W 063°05'0 0.0
2016-May-13 07:30N 18°04' W 063°05'0 0.0
2016-May-13 06:29N 18°04' W 063°05'0 0.0
2016-May-13 05:33N 18°04' W 063°05'0 0.0
2016-May-13 04:32N 18°04' W 063°05'0 0.0
2016-May-13 03:32N 18°04' W 063°05'0 0.0
2016-May-13 02:33N 18°04' W 063°05'0 0.0
2016-May-13 01:20N 18°04' W 063°05'0 0.0
2016-May-13 00:32N 18°04' W 063°05'0 0.0
2016-May-12 23:23N 18°04' W 063°05'0 0.0
2016-May-12 22:23N 18°04' W 063°05'0 0.0
2016-May-12 21:26N 18°04' W 063°05'0 0.0
2016-May-12 20:26N 18°04' W 063°05'0 0.0
2016-May-12 19:29N 18°04' W 063°05'0 0.0
2016-May-12 18:29N 18°04' W 063°05'0 0.0
2016-May-12 17:14N 18°04' W 063°05'0 0.0
2016-May-12 16:32N 18°04' W 063°05'0 0.0
2016-May-12 15:33N 18°04' W 063°05'0 0.0
2016-May-12 14:30N 18°04' W 063°05'0 0.0
2016-May-12 13:33N 18°04' W 063°05'0 0.0
2016-May-12 12:20N 18°04' W 063°05'0 0.0
2016-May-12 11:32N 18°04' W 063°05'0 0.0
2016-May-12 10:32N 18°04' W 063°05'0 0.0
2016-May-12 09:23N 18°04' W 063°05'0 0.0
2016-May-12 08:23N 18°04' W 063°05'0 0.0
2016-May-12 07:27N 18°04' W 063°05'0 0.0
2016-May-12 06:11N 18°04' W 063°05'0 0.0
2016-May-12 05:29N 18°04' W 063°05'0 0.0
2016-May-12 04:29N 18°04' W 063°05'0 0.0
2016-May-12 03:29N 18°04' W 063°05'0 0.0
2016-May-12 02:29N 18°04' W 063°05'0 0.0
2016-May-12 01:17N 18°04' W 063°05'0 0.0
2016-May-12 00:29N 18°04' W 063°05'0 0.0
2016-May-11 23:32N 18°04' W 063°05'  

Dump ship's entire track history